BHS weather

Bathurst Airport
Bathurst, New South Wales, Australia

Public forecast

Using degrees Celsius for public forecast. Weather courtesy of forecast.io.

METAR (pilot weather report)

Closest report is Mudgee Airport, 50.9 nm (94.2 km) N. Retrieved 2019/04/21 16:00 UTC (23 minutes ago):

YMDG 211600Z AUTO 14004KT 9999 // NCD 16/14 Q1022

TAF (pilot weather forecast)

Closest forecast is RAAF Base Richmond, 57.7 nm (106.8 km) ESE. Retrieved 2019/04/21 12:36 UTC (4 hours ago):

TAF YSRI 211133Z 2112/2212 VRB03KT 9999 SCT010 FM220000 05007KT 9999 SCT030 FM221000 VRB03KT 9999 SCT010 PROB30 2114/2124 0200 FG BKN001